Aviation Digital Data Service (ADDS)

Output produced by METARs form (1404 UTC 10 July 2020)
found at http://www.aviationweather.gov/metar/data/
 
KCAE 101356Z 00000KT 10SM FEW025 SCT130 SCT250 29/23 A2992 RMK AO2 SLP130 T02890233
KCAE 101133Z 1012/1112 00000KT P6SM FEW150 
     FM101500 29006KT P6SM SCT050 SCT120 
     FM110000 23003KT P6SM SCT250